Flight Track Log - Related Links

Times and Time Zones

All times are in EDT time to prevent confusion due to time zone crossing. See the ASQ4954 flight status page for this flight to view local times or setup timezone preferences in your user account.

Time Position Orientation Groundspeed Altitude Reporting Facility
EDT Latitude Longitude Course Direction KTS MPH feet Rate Location/Type
Wed 12:06:12 PM 41.6289 -86.3447 160° South 247 284 5,000  Level Chicago Center
Wed 12:07:14 PM 41.5450 -86.3453 180° South 251 289 7,900 1,500 Climbing Chicago Center
Wed 12:08:16 PM 41.4733 -86.3458 180° South 257 296 8,100 1,171 Climbing Chicago Center
Wed 12:09:17 PM 41.4008 -86.3489 182° South 262 302 10,300 1,854 Climbing Chicago Center
Wed 12:10:00 PM 41.3751 -85.8028 129° Southeast  Level FlightAware Approximate
Wed 12:10:19 PM 41.3183 -86.3503 181° South 295 339 11,900  Level Chicago Center
Wed 12:11:21 PM 41.2294 -86.3525 181° South 319 367 13,400 1,403 Climbing Chicago Center
Wed 12:12:23 PM 41.1336 -86.3550 181° South 344 396 14,800 1,512 Climbing Chicago Center
Wed 12:13:24 PM 41.0139 -86.3569 181° South 360 414 16,500 1,659 Climbing Chicago Center
Wed 12:14:26 PM 40.9119 -86.3578 180° South 367 422 18,200 1,500 Climbing Chicago Center
Wed 12:15:28 PM 40.8106 -86.3608 181° South 368 423 19,600 1,355 Climbing Chicago Center
Wed 12:16:30 PM 40.7089 -86.3619 180° South 367 422 21,000 1,161 Climbing Chicago Center
Wed 12:17:32 PM 40.5997 -86.3650 181° South 365 420 22,000 878 Climbing Chicago Center
Wed 12:18:33 PM 40.4947 -86.3675 181° South 376 433 22,800 829 Climbing Chicago Center
Wed 12:19:35 PM 40.3886 -86.3722 182° South 382 440 23,700 823 Climbing Chicago Center
Wed 12:20:37 PM 40.2808 -86.3722 180° South 387 445 24,500 774 Climbing Chicago Center
Wed 12:21:39 PM 40.1744 -86.3742 181° South 384 442 25,300 757 Climbing Chicago Center
Wed 12:22:20 PM 40.0897 -86.3756 181° South 383 441 25,800 647 Climbing Indianapolis Center
Wed 12:23:21 PM 39.9833 -86.3781 181° South 383 441 26,400 537 Climbing Indianapolis Center
Wed 12:24:23 PM 39.8772 -86.3800 181° South 383 441 26,900 488 Climbing Indianapolis Center
Wed 12:25:24 PM 39.7719 -86.3819 181° South 384 442 27,400 537 Climbing Indianapolis Center
Wed 12:26:26 PM 39.6469 -86.3856 181° South 385 443 28,000 537 Climbing Indianapolis Center
Wed 12:27:27 PM 39.5403 -86.3878 181° South 387 445 28,500 488 Climbing Indianapolis Center
Wed 12:28:29 PM 39.4336 -86.3903 181° South 387 445 29,000 488 Climbing Indianapolis Center
Wed 12:29:30 PM 39.3275 -86.3928 181° South 386 444 29,500 488 Climbing Indianapolis Center
Wed 12:30:32 PM 39.2222 -86.3947 181° South 383 441 30,000 488 Climbing Indianapolis Center
Wed 12:31:33 PM 39.1181 -86.3964 181° South 378 435 30,500 537 Climbing Indianapolis Center
Wed 12:32:35 PM 38.9967 -86.3992 181° South 369 425 31,100 537 Climbing Indianapolis Center
Wed 12:33:36 PM 38.8967 -86.4025 181° South 367 422 31,600 439 Climbing Indianapolis Center
Wed 12:34:38 PM 38.8078 -86.4042 181° South 357 411 32,000 195 Climbing Indianapolis Center
Wed 12:35:39 PM 38.7075 -86.4075 181° South 355 409 32,000  Level Indianapolis Center
Wed 12:36:41 PM 38.6053 -86.4094 181° South 359 413 32,000  Level Indianapolis Center
Wed 12:37:43 PM 38.5006 -86.4106 180° South 367 422 32,000  Level Indianapolis Center
Wed 12:38:44 PM 38.3725 -86.4136 181° South 375 432 32,000  Level Indianapolis Center
Wed 12:39:46 PM 38.2656 -86.4169 181° South 378 435 32,000  Level Indianapolis Center
Wed 12:40:48 PM 38.1572 -86.4189 181° South 379 436 32,000  Level Indianapolis Center
Wed 12:41:50 PM 38.0483 -86.4208 181° South 382 440 32,000  Level Indianapolis Center
Wed 12:42:51 PM 37.9403 -86.4231 181° South 382 440 32,000  Level Indianapolis Center
Wed 12:43:53 PM 37.8325 -86.4256 181° South 383 441 32,000  Level Indianapolis Center
Wed 12:44:55 PM 37.7119 -86.4278 181° South 383 441 32,000  Level Indianapolis Center
Wed 12:45:57 PM 37.6036 -86.4297 181° South 384 442 32,000 -387 Level Indianapolis Center
Wed 12:46:59 PM 37.4933 -86.4325 181° South 386 444 31,200 -488 Descending Indianapolis Center
Wed 12:48:00 PM 37.3800 -86.4347 181° South 398 458 31,000 -98 Descending Indianapolis Center
Wed 12:49:02 PM 37.2678 -86.4369 181° South 399 459 31,000  Level Indianapolis Center
Wed 12:50:04 PM 37.1564 -86.4389 181° South 398 458 31,000  Level Indianapolis Center
Wed 12:51:06 PM 37.0442 -86.4408 181° South 398 458 31,000  Level Indianapolis Center
Wed 12:52:08 PM 36.9325 -86.4436 181° South 398 458 31,000  Level Indianapolis Center
Wed 12:53:09 PM 36.8192 -86.4375 178° South 399 459 31,000  Level Indianapolis Center
Wed 12:54:11 PM 36.7047 -86.4289 177° South 402 463 31,000  Level Indianapolis Center
Wed 12:55:13 PM 36.5708 -86.4203 177° South 404 465 31,000  Level Indianapolis Center
Wed 12:56:15 PM 36.4567 -86.4131 177° South 404 465 31,000  Level Indianapolis Center
Wed 12:57:17 PM 36.3408 -86.3969 174° South 410 472 31,000  Level Indianapolis Center
Wed 12:58:19 PM 36.2233 -86.3661 168° South 423 487 31,000  Level Indianapolis Center
Wed 12:59:21 PM 36.1061 -86.3347 168° South 423 487 31,000  Level Indianapolis Center
Wed 01:00:22 PM 35.9886 -86.3006 167° South 424 488 31,000  Level Indianapolis Center
Wed 01:01:24 PM 35.8711 -86.2669 167° South 425 489 31,000  Level Indianapolis Center
Wed 01:02:10 PM 35.7717 -86.2372 166° South 425 489 31,000  Level Atlanta Center
Wed 01:02:50 PM 35.6942 -86.2031 160° South 441 507 31,000  Level Memphis Center
Wed 01:03:52 PM 35.5942 -86.1408 153° Southeast 448 516 31,000  Level Memphis Center
Wed 01:04:54 PM 35.4797 -86.0736 154° Southeast 451 519 31,000  Level Memphis Center
Wed 01:05:57 PM 35.3422 -85.9908 154° Southeast 458 527 31,000  Level Memphis Center
Wed 01:06:59 PM 35.2275 -85.9242 155° Southeast 458 527 31,000 -194 Level Memphis Center
Wed 01:08:01 PM 35.1119 -85.8556 154° Southeast 458 527 30,600 -919 Descending Memphis Center
Wed 01:09:03 PM 34.9969 -85.7708 149° Southeast 477 549 29,100 -1,452 Descending Memphis Center
Wed 01:10:05 PM 34.8806 -85.6803 147° Southeast 491 565 27,600 -1,597 Descending Memphis Center
Wed 01:11:07 PM 34.7450 -85.5731 147° Southeast 490 564 25,800 -1,392 Descending Memphis Center
Wed 01:12:10 PM 34.6353 -85.4878 147° Southeast 479 551 24,700 -1,073 Descending Atlanta Center
Wed 01:13:10 PM 34.5297 -85.4078 148° Southeast 467 537 23,600 -1,700 Descending Atlanta Center
Wed 01:14:10 PM 34.4158 -85.3206 148° Southeast 467 537 21,300 -2,350 Descending Atlanta Center
Wed 01:15:10 PM 34.3289 -85.2486 146° Southeast 451 519 18,900 -2,350 Descending Atlanta Center
Wed 01:16:10 PM 34.2192 -85.1667 148° Southeast 435 501 16,600 -2,100 Descending Atlanta Center
Wed 01:17:10 PM 34.1300 -85.0778 140° Southeast 423 487 14,700 -1,350 Descending Atlanta Center
Wed 01:18:10 PM 34.0639 -84.9942 134° Southeast 377 434 13,900 -900 Descending Atlanta Center
Wed 01:19:10 PM 34.0019 -84.9133 133° Southeast 335 386 12,900 -950 Descending Atlanta Center
Wed 01:20:10 PM 33.9378 -84.8350 135° Southeast 329 379 12,000 -450 Descending Atlanta Center
Wed 01:21:10 PM 33.8714 -84.7519 134° Southeast 334 384 12,000  Level Atlanta Center
Wed 01:21:59 PM 33.8167 -84.6833 134° Southeast 337 388 12,000  Level Atlanta TRACON
Wed 01:22:59 PM 33.7500 -84.6000 134° Southeast 296 341 12,000 -400 Level Atlanta TRACON
Wed 01:23:59 PM 33.7333 -84.5167 104° East 289 333 11,200 -1,050 Descending Atlanta TRACON
Wed 01:24:59 PM 33.7333 -84.4333 90° East 294 338 9,900 -1,300 Descending Atlanta TRACON
Wed 01:25:59 PM 33.7333 -84.3333 90° East 278 320 8,600 -1,263 Descending Atlanta TRACON
Wed 01:26:53 PM 33.7333 -84.2500 90° East 265 305 7,500 -1,211 Descending Atlanta TRACON
Wed 01:27:53 PM 33.7333 -84.1667 90° East 262 302 6,300 -1,143 Descending Atlanta TRACON
Wed 01:28:59 PM 33.7333 -84.0667 90° East 251 289 5,100 -619 Descending Atlanta TRACON
Wed 01:29:59 PM 33.7333 -84.0000 90° East 221 254 5,000 -50 Descending Atlanta TRACON
Wed 01:30:59 PM 33.7000 -83.9500 129° Southeast 194 223 5,000  Level Atlanta TRACON
Wed 01:31:59 PM 33.6667 -83.9333 157° South 193 222 5,000  Level Atlanta TRACON
Wed 01:32:59 PM 33.6500 -83.9833 248° West 155 178 5,000  Level Atlanta TRACON
Wed 01:33:59 PM 33.6500 -84.0333 270° West 158 182 5,000  Level Atlanta TRACON
Wed 01:34:53 PM 33.6500 -84.0833 270° West 157 181 5,000  Level Atlanta TRACON
Wed 01:35:59 PM 33.6500 -84.1333 270° West 159 183 5,000 -95 Level Atlanta TRACON
Wed 01:36:59 PM 33.6500 -84.1833 270° West 157 181 4,800 -522 Descending Atlanta TRACON
Wed 01:37:54 PM 33.6500 -84.2333 270° West 158 182 4,000 -950 Descending Atlanta TRACON
Wed 01:38:59 PM 33.6500 -84.3000 270° West 174 200 2,900 -952 Descending Atlanta TRACON
Wed 01:40:00 PM 33.6500 -84.3500 270° West 153 176 2,000 -835 Descending Atlanta TRACON
Wed 01:40:54 PM 33.6500 -84.4000 270° West 144 166 1,300 -778 Descending Atlanta TRACON
Wed 01:42:00 PM 33.6333 -84.4167 267° West  Level FlightAware Approximate
Wed 01:49:00 PM 33.6367 -84.4279 290° West  Level Estimated

Login

Don't have an account? Register now (free) for customized features, flight alerts, and more!